sensor_id;sensor_type;location;lat;lon;timestamp;pressure;altitude;pressure_sealevel;temperature;humidity
69751;BME280;57335;52.288;6.056;2023-04-25T00:00:46;100985.78;;;6.36;100.00
69751;BME280;57335;52.288;6.056;2023-04-25T00:03:12;100996.19;;;6.36;100.00
69751;BME280;57335;52.288;6.056;2023-04-25T00:05:39;101006.63;;;6.36;100.00
69751;BME280;57335;52.288;6.056;2023-04-25T00:08:05;100994.34;;;6.22;100.00
69751;BME280;57335;52.288;6.056;2023-04-25T00:10:32;101003.13;;;6.21;100.00
69751;BME280;57335;52.288;6.056;2023-04-25T00:12:58;100999.63;;;6.13;100.00
69751;BME280;57335;52.288;6.056;2023-04-25T00:15:24;100997.03;;;6.05;100.00
69751;BME280;57335;52.288;6.056;2023-04-25T00:17:50;101010.34;;;6.10;100.00
69751;BME280;57335;52.288;6.056;2023-04-25T00:20:17;100994.50;;;5.97;100.00
69751;BME280;57335;52.288;6.056;2023-04-25T00:22:43;101010.03;;;6.05;100.00
69751;BME280;57335;52.288;6.056;2023-04-25T00:25:10;101009.09;;;6.06;100.00
69751;BME280;57335;52.288;6.056;2023-04-25T00:27:36;100996.75;;;6.00;100.00
69751;BME280;57335;52.288;6.056;2023-04-25T00:30:02;101016.38;;;6.11;100.00
69751;BME280;57335;52.288;6.056;2023-04-25T00:32:29;101006.81;;;6.03;100.00
69751;BME280;57335;52.288;6.056;2023-04-25T00:34:55;101024.97;;;6.11;100.00
69751;BME280;57335;52.288;6.056;2023-04-25T00:37:22;101018.50;;;6.07;100.00
69751;BME280;57335;52.288;6.056;2023-04-25T00:39:48;101021.44;;;6.04;100.00
69751;BME280;57335;52.288;6.056;2023-04-25T00:42:15;101017.84;;;6.05;100.00
69751;BME280;57335;52.288;6.056;2023-04-25T00:44:42;101011.72;;;5.98;100.00
69751;BME280;57335;52.288;6.056;2023-04-25T00:47:11;101008.78;;;6.01;100.00
69751;BME280;57335;52.288;6.056;2023-04-25T00:49:37;101026.81;;;6.03;100.00
69751;BME280;57335;52.288;6.056;2023-04-25T00:52:03;101018.06;;;6.04;100.00
69751;BME280;57335;52.288;6.056;2023-04-25T00:54:30;101027.34;;;5.98;100.00
69751;BME280;57335;52.288;6.056;2023-04-25T00:56:56;101017.91;;;5.89;100.00
69751;BME280;57335;52.288;6.056;2023-04-25T00:59:23;101025.06;;;5.95;100.00
69751;BME280;57335;52.288;6.056;2023-04-25T01:01:50;101016.63;;;5.85;100.00
69751;BME280;57335;52.288;6.056;2023-04-25T01:04:16;101025.25;;;5.85;100.00
69751;BME280;57335;52.288;6.056;2023-04-25T01:06:43;101009.56;;;5.70;100.00
69751;BME280;57335;52.288;6.056;2023-04-25T01:09:10;101001.63;;;5.64;100.00
69751;BME280;57335;52.288;6.056;2023-04-25T01:11:36;101016.41;;;5.71;100.00
69751;BME280;57335;52.288;6.056;2023-04-25T01:14:02;101040.03;;;5.85;100.00
69751;BME280;57335;52.288;6.056;2023-04-25T01:16:29;101020.56;;;5.80;100.00
69751;BME280;57335;52.288;6.056;2023-04-25T01:18:56;101025.13;;;5.78;100.00
69751;BME280;57335;52.288;6.056;2023-04-25T01:21:22;101037.44;;;5.85;100.00
69751;BME280;57335;52.288;6.056;2023-04-25T01:23:49;101013.31;;;5.68;100.00
69751;BME280;57335;52.288;6.056;2023-04-25T01:26:16;101025.69;;;5.66;100.00
69751;BME280;57335;52.288;6.056;2023-04-25T01:28:43;101033.00;;;5.62;100.00
69751;BME280;57335;52.288;6.056;2023-04-25T01:31:11;101028.00;;;5.52;100.00
69751;BME280;57335;52.288;6.056;2023-04-25T01:33:38;101033.38;;;5.43;100.00
69751;BME280;57335;52.288;6.056;2023-04-25T01:36:04;101024.97;;;5.32;100.00
69751;BME280;57335;52.288;6.056;2023-04-25T01:38:31;101029.53;;;5.22;100.00
69751;BME280;57335;52.288;6.056;2023-04-25T01:40:58;101041.25;;;5.18;100.00
69751;BME280;57335;52.288;6.056;2023-04-25T01:43:24;101039.16;;;5.13;100.00
69751;BME280;57335;52.288;6.056;2023-04-25T01:45:51;101034.78;;;5.06;100.00
69751;BME280;57335;52.288;6.056;2023-04-25T01:48:18;101049.06;;;5.10;100.00
69751;BME280;57335;52.288;6.056;2023-04-25T01:50:44;101054.91;;;5.12;100.00
69751;BME280;57335;52.288;6.056;2023-04-25T01:53:12;101045.78;;;5.16;100.00
69751;BME280;57335;52.288;6.056;2023-04-25T01:55:39;101063.31;;;5.22;100.00
69751;BME280;57335;52.288;6.056;2023-04-25T01:58:05;101070.59;;;5.27;100.00
69751;BME280;57335;52.288;6.056;2023-04-25T02:00:32;101055.84;;;5.19;100.00
69751;BME280;57335;52.288;6.056;2023-04-25T02:02:58;101067.38;;;5.25;100.00
69751;BME280;57335;52.288;6.056;2023-04-25T02:05:25;101063.97;;;5.16;100.00
69751;BME280;57335;52.288;6.056;2023-04-25T02:07:51;101063.00;;;5.09;100.00
69751;BME280;57335;52.288;6.056;2023-04-25T02:10:17;101075.53;;;5.05;100.00
69751;BME280;57335;52.288;6.056;2023-04-25T02:12:44;101074.06;;;5.03;100.00
69751;BME280;57335;52.288;6.056;2023-04-25T02:15:10;101065.13;;;4.89;100.00
69751;BME280;57335;52.288;6.056;2023-04-25T02:17:36;101077.31;;;4.88;100.00
69751;BME280;57335;52.288;6.056;2023-04-25T02:20:03;101062.88;;;4.69;100.00
69751;BME280;57335;52.288;6.056;2023-04-25T02:22:29;101074.22;;;4.60;100.00
69751;BME280;57335;52.288;6.056;2023-04-25T02:24:56;101086.03;;;4.63;100.00
69751;BME280;57335;52.288;6.056;2023-04-25T02:27:22;101081.84;;;4.53;100.00
69751;BME280;57335;52.288;6.056;2023-04-25T02:29:48;101080.53;;;4.49;100.00
69751;BME280;57335;52.288;6.056;2023-04-25T02:32:15;101086.69;;;4.48;100.00
69751;BME280;57335;52.288;6.056;2023-04-25T02:34:41;101073.34;;;4.35;100.00
69751;BME280;57335;52.288;6.056;2023-04-25T02:37:07;101091.22;;;4.38;100.00
69751;BME280;57335;52.288;6.056;2023-04-25T02:39:34;101076.25;;;4.24;100.00
69751;BME280;57335;52.288;6.056;2023-04-25T02:42:00;101092.31;;;4.27;100.00
69751;BME280;57335;52.288;6.056;2023-04-25T02:44:26;101077.19;;;4.14;100.00
69751;BME280;57335;52.288;6.056;2023-04-25T02:46:53;101081.09;;;4.18;100.00
69751;BME280;57335;52.288;6.056;2023-04-25T02:49:19;101079.47;;;4.09;100.00
69751;BME280;57335;52.288;6.056;2023-04-25T02:51:45;101085.13;;;4.13;100.00
69751;BME280;57335;52.288;6.056;2023-04-25T02:54:12;101075.72;;;4.04;100.00
69751;BME280;57335;52.288;6.056;2023-04-25T02:56:38;101086.75;;;4.14;100.00
69751;BME280;57335;52.288;6.056;2023-04-25T02:59:04;101083.81;;;4.09;100.00
69751;BME280;57335;52.288;6.056;2023-04-25T03:01:31;101097.00;;;4.15;100.00
69751;BME280;57335;52.288;6.056;2023-04-25T03:03:57;101096.00;;;4.16;100.00
69751;BME280;57335;52.288;6.056;2023-04-25T03:06:24;101095.06;;;4.17;100.00
69751;BME280;57335;52.288;6.056;2023-04-25T03:08:50;101100.25;;;4.17;100.00
69751;BME280;57335;52.288;6.056;2023-04-25T03:11:16;101086.63;;;4.15;100.00
69751;BME280;57335;52.288;6.056;2023-04-25T03:13:43;101101.22;;;4.25;100.00
69751;BME280;57335;52.288;6.056;2023-04-25T03:16:09;101101.88;;;4.27;100.00
69751;BME280;57335;52.288;6.056;2023-04-25T03:18:35;101096.38;;;4.30;100.00
69751;BME280;57335;52.288;6.056;2023-04-25T03:21:02;101103.81;;;4.33;100.00
69751;BME280;57335;52.288;6.056;2023-04-25T03:23:28;101095.56;;;4.29;100.00
69751;BME280;57335;52.288;6.056;2023-04-25T03:25:54;101106.63;;;4.39;100.00
69751;BME280;57335;52.288;6.056;2023-04-25T03:28:21;101100.13;;;4.35;100.00
69751;BME280;57335;52.288;6.056;2023-04-25T03:30:48;101118.16;;;4.45;100.00
69751;BME280;57335;52.288;6.056;2023-04-25T03:33:14;101124.97;;;4.46;100.00
69751;BME280;57335;52.288;6.056;2023-04-25T03:35:40;101110.50;;;4.35;100.00
69751;BME280;57335;52.288;6.056;2023-04-25T03:38:07;101130.47;;;4.43;100.00
69751;BME280;57335;52.288;6.056;2023-04-25T03:40:33;101125.75;;;4.47;100.00
69751;BME280;57335;52.288;6.056;2023-04-25T03:43:00;101107.44;;;4.40;100.00
69751;BME280;57335;52.288;6.056;2023-04-25T03:45:26;101116.22;;;4.55;100.00
69751;BME280;57335;52.288;6.056;2023-04-25T03:47:52;101106.97;;;4.53;100.00
69751;BME280;57335;52.288;6.056;2023-04-25T03:50:18;101123.53;;;4.60;100.00
69751;BME280;57335;52.288;6.056;2023-04-25T03:52:45;101106.16;;;4.52;100.00
69751;BME280;57335;52.288;6.056;2023-04-25T03:55:11;101130.03;;;4.64;100.00
69751;BME280;57335;52.288;6.056;2023-04-25T03:57:37;101126.94;;;4.60;100.00
69751;BME280;57335;52.288;6.056;2023-04-25T04:00:04;101130.81;;;4.65;100.00
69751;BME280;57335;52.288;6.056;2023-04-25T04:02:31;101137.16;;;4.62;100.00
69751;BME280;57335;52.288;6.056;2023-04-25T04:04:57;101137.66;;;4.66;100.00
69751;BME280;57335;52.288;6.056;2023-04-25T04:07:24;101127.09;;;4.59;100.00
69751;BME280;57335;52.288;6.056;2023-04-25T04:09:50;101139.59;;;4.64;100.00
69751;BME280;57335;52.288;6.056;2023-04-25T04:12:17;101135.69;;;4.59;100.00
69751;BME280;57335;52.288;6.056;2023-04-25T04:14:43;101143.16;;;4.63;100.00
69751;BME280;57335;52.288;6.056;2023-04-25T04:17:09;101132.09;;;4.52;100.00
69751;BME280;57335;52.288;6.056;2023-04-25T04:19:36;101145.88;;;4.53;100.00
69751;BME280;57335;52.288;6.056;2023-04-25T04:22:02;101146.72;;;4.53;100.00
69751;BME280;57335;52.288;6.056;2023-04-25T04:24:29;101159.50;;;4.55;100.00
69751;BME280;57335;52.288;6.056;2023-04-25T04:26:55;101141.50;;;4.45;100.00
69751;BME280;57335;52.288;6.056;2023-04-25T04:29:21;101156.91;;;4.55;100.00
69751;BME280;57335;52.288;6.056;2023-04-25T04:31:49;101148.97;;;4.48;100.00
69751;BME280;57335;52.288;6.056;2023-04-25T04:34:16;101153.03;;;4.51;100.00
69751;BME280;57335;52.288;6.056;2023-04-25T04:36:43;101154.31;;;4.47;100.00
69751;BME280;57335;52.288;6.056;2023-04-25T04:39:10;101156.25;;;4.45;100.00
69751;BME280;57335;52.288;6.056;2023-04-25T04:41:36;101169.44;;;4.51;100.00
69751;BME280;57335;52.288;6.056;2023-04-25T04:44:02;101168.91;;;4.48;100.00
69751;BME280;57335;52.288;6.056;2023-04-25T04:46:29;101156.88;;;4.38;100.00
69751;BME280;57335;52.288;6.056;2023-04-25T04:48:55;101175.72;;;4.49;100.00
69751;BME280;57335;52.288;6.056;2023-04-25T04:51:22;101186.47;;;4.54;100.00
69751;BME280;57335;52.288;6.056;2023-04-25T04:53:48;101180.63;;;4.52;100.00
69751;BME280;57335;52.288;6.056;2023-04-25T04:56:15;101176.72;;;4.48;100.00
69751;BME280;57335;52.288;6.056;2023-04-25T04:58:41;101197.34;;;4.57;100.00
69751;BME280;57335;52.288;6.056;2023-04-25T05:01:07;101192.44;;;4.54;100.00
69751;BME280;57335;52.288;6.056;2023-04-25T05:03:34;101192.16;;;4.57;100.00
69751;BME280;57335;52.288;6.056;2023-04-25T05:06:00;101198.00;;;4.59;100.00
69751;BME280;57335;52.288;6.056;2023-04-25T05:08:26;101199.97;;;4.66;100.00
69751;BME280;57335;52.288;6.056;2023-04-25T05:10:53;101195.91;;;4.63;100.00
69751;BME280;57335;52.288;6.056;2023-04-25T05:13:19;101211.50;;;4.71;100.00
69751;BME280;57335;52.288;6.056;2023-04-25T05:15:45;101211.97;;;4.75;100.00
69751;BME280;57335;52.288;6.056;2023-04-25T05:18:12;101211.97;;;4.75;100.00
69751;BME280;57335;52.288;6.056;2023-04-25T05:20:38;101220.59;;;4.75;100.00
69751;BME280;57335;52.288;6.056;2023-04-25T05:23:04;101219.47;;;4.78;100.00
69751;BME280;57335;52.288;6.056;2023-04-25T05:25:31;101231.47;;;4.79;100.00
69751;BME280;57335;52.288;6.056;2023-04-25T05:27:57;101228.56;;;4.82;100.00
69751;BME280;57335;52.288;6.056;2023-04-25T05:30:23;101225.66;;;4.85;100.00
69751;BME280;57335;52.288;6.056;2023-04-25T05:32:50;101228.41;;;4.84;100.00
69751;BME280;57335;52.288;6.056;2023-04-25T05:35:16;101227.13;;;4.88;100.00
69751;BME280;57335;52.288;6.056;2023-04-25T05:37:43;101227.78;;;4.90;100.00
69751;BME280;57335;52.288;6.056;2023-04-25T05:40:09;101250.84;;;5.01;100.00
69751;BME280;57335;52.288;6.056;2023-04-25T05:42:36;101230.38;;;4.98;100.00
69751;BME280;57335;52.288;6.056;2023-04-25T05:45:02;101254.44;;;5.08;100.00
69751;BME280;57335;52.288;6.056;2023-04-25T05:47:29;101237.25;;;5.07;100.00
69751;BME280;57335;52.288;6.056;2023-04-25T05:49:55;101255.09;;;5.18;100.00
69751;BME280;57335;52.288;6.056;2023-04-25T05:52:21;101234.47;;;5.17;100.00
69751;BME280;57335;52.288;6.056;2023-04-25T05:54:48;101251.06;;;5.32;100.00
69751;BME280;57335;52.288;6.056;2023-04-25T05:57:25;101264.06;;;5.40;100.00
69751;BME280;57335;52.288;6.056;2023-04-25T05:59:52;101262.75;;;5.45;100.00
69751;BME280;57335;52.288;6.056;2023-04-25T06:02:19;101251.72;;;5.51;100.00
69751;BME280;57335;52.288;6.056;2023-04-25T06:04:48;101256.25;;;5.65;100.00
69751;BME280;57335;52.288;6.056;2023-04-25T06:07:15;101269.94;;;5.84;100.00
69751;BME280;57335;52.288;6.056;2023-04-25T06:09:41;101247.81;;;5.88;100.00
69751;BME280;57335;52.288;6.056;2023-04-25T06:12:08;101264.38;;;6.03;100.00
69751;BME280;57335;52.288;6.056;2023-04-25T06:14:34;101271.53;;;6.09;100.00
69751;BME280;57335;52.288;6.056;2023-04-25T06:17:01;101277.06;;;6.14;100.00
69751;BME280;57335;52.288;6.056;2023-04-25T06:19:27;101277.84;;;6.23;100.00
69751;BME280;57335;52.288;6.056;2023-04-25T06:21:54;101278.16;;;6.28;100.00
69751;BME280;57335;52.288;6.056;2023-04-25T06:24:20;101286.09;;;6.43;100.00
69751;BME280;57335;52.288;6.056;2023-04-25T06:26:46;101274.28;;;6.72;100.00
69751;BME280;57335;52.288;6.056;2023-04-25T06:29:13;101268.56;;;7.54;100.00
69751;BME280;57335;52.288;6.056;2023-04-25T06:31:39;101277.81;;;8.62;100.00
69751;BME280;57335;52.288;6.056;2023-04-25T06:34:05;101277.59;;;9.58;94.06
69751;BME280;57335;52.288;6.056;2023-04-25T06:36:32;101287.66;;;10.39;91.99
69751;BME280;57335;52.288;6.056;2023-04-25T06:38:58;101287.06;;;10.92;84.55
69751;BME280;57335;52.288;6.056;2023-04-25T06:41:24;101284.31;;;11.20;77.29
69751;BME280;57335;52.288;6.056;2023-04-25T06:43:51;101295.84;;;11.26;78.80
69751;BME280;57335;52.288;6.056;2023-04-25T06:46:18;101293.94;;;10.93;76.39
69751;BME280;57335;52.288;6.056;2023-04-25T06:48:44;101292.03;;;10.67;78.68
69751;BME280;57335;52.288;6.056;2023-04-25T06:51:10;101285.84;;;10.11;78.32
69751;BME280;57335;52.288;6.056;2023-04-25T06:53:37;101288.47;;;9.83;76.48
69751;BME280;57335;52.288;6.056;2023-04-25T06:56:03;101297.59;;;9.66;78.92
69751;BME280;57335;52.288;6.056;2023-04-25T06:58:30;101301.81;;;9.45;81.06
69751;BME280;57335;52.288;6.056;2023-04-25T07:00:56;101301.63;;;9.25;79.87
69751;BME280;57335;52.288;6.056;2023-04-25T07:03:23;101303.56;;;9.16;81.33
69751;BME280;57335;52.288;6.056;2023-04-25T07:05:50;101309.16;;;9.13;82.12
69751;BME280;57335;52.288;6.056;2023-04-25T07:08:16;101308.22;;;9.21;82.10
69751;BME280;57335;52.288;6.056;2023-04-25T07:10:43;101297.59;;;9.23;81.87
69751;BME280;57335;52.288;6.056;2023-04-25T07:13:09;101314.16;;;9.51;83.06
69751;BME280;57335;52.288;6.056;2023-04-25T07:15:36;101314.31;;;9.93;84.24
69751;BME280;57335;52.288;6.056;2023-04-25T07:18:02;101306.94;;;10.31;77.79
69751;BME280;57335;52.288;6.056;2023-04-25T07:20:29;101321.13;;;10.85;75.50
69751;BME280;57335;52.288;6.056;2023-04-25T07:22:55;101314.19;;;11.32;76.36
69751;BME280;57335;52.288;6.056;2023-04-25T07:25:21;101321.72;;;12.22;77.47
69751;BME280;57335;52.288;6.056;2023-04-25T07:27:48;101321.41;;;13.09;69.17
69751;BME280;57335;52.288;6.056;2023-04-25T07:30:14;101331.59;;;13.69;69.01
69751;BME280;57335;52.288;6.056;2023-04-25T07:32:40;101332.75;;;13.80;64.88
69751;BME280;57335;52.288;6.056;2023-04-25T07:35:07;101340.28;;;13.06;62.27
69751;BME280;57335;52.288;6.056;2023-04-25T07:37:34;101340.81;;;12.76;69.61
69751;BME280;57335;52.288;6.056;2023-04-25T07:40:02;101341.66;;;12.56;71.32
69751;BME280;57335;52.288;6.056;2023-04-25T07:42:30;101353.44;;;12.34;69.86
69751;BME280;57335;52.288;6.056;2023-04-25T07:44:56;101357.81;;;11.40;64.81
69751;BME280;57335;52.288;6.056;2023-04-25T07:47:23;101364.09;;;10.49;70.41
69751;BME280;57335;52.288;6.056;2023-04-25T07:49:50;101387.88;;;8.59;75.83
69751;BME280;57335;52.288;6.056;2023-04-25T07:52:16;101410.94;;;7.40;83.88
69751;BME280;57335;52.288;6.056;2023-04-25T07:54:42;101392.97;;;6.66;89.00
69751;BME280;57335;52.288;6.056;2023-04-25T07:57:09;101409.41;;;6.58;89.21
69751;BME280;57335;52.288;6.056;2023-04-25T07:59:35;101395.25;;;6.61;91.03
69751;BME280;57335;52.288;6.056;2023-04-25T08:02:02;101384.97;;;6.76;90.94
69751;BME280;57335;52.288;6.056;2023-04-25T08:04:28;101369.00;;;6.79;92.15
69751;BME280;57335;52.288;6.056;2023-04-25T08:06:55;101383.72;;;7.03;91.66
69751;BME280;57335;52.288;6.056;2023-04-25T08:09:21;101384.16;;;7.15;91.34
69751;BME280;57335;52.288;6.056;2023-04-25T08:11:48;101383.44;;;7.29;90.33
69751;BME280;57335;52.288;6.056;2023-04-25T08:14:15;101401.22;;;7.57;92.18
69751;BME280;57335;52.288;6.056;2023-04-25T08:16:41;101394.47;;;7.94;93.66
69751;BME280;57335;52.288;6.056;2023-04-25T08:19:07;101386.88;;;8.45;93.42
69751;BME280;57335;52.288;6.056;2023-04-25T08:21:34;101389.59;;;9.11;88.01
69751;BME280;57335;52.288;6.056;2023-04-25T08:24:00;101380.06;;;9.62;86.12
69751;BME280;57335;52.288;6.056;2023-04-25T08:26:28;101387.97;;;10.11;80.08
69751;BME280;57335;52.288;6.056;2023-04-25T08:28:55;101389.44;;;10.42;80.68
69751;BME280;57335;52.288;6.056;2023-04-25T08:31:21;101380.59;;;10.78;76.49
69751;BME280;57335;52.288;6.056;2023-04-25T08:33:47;101402.66;;;11.45;81.30
69751;BME280;57335;52.288;6.056;2023-04-25T08:36:14;101388.84;;;12.11;77.83
69751;BME280;57335;52.288;6.056;2023-04-25T08:38:50;101407.13;;;12.91;75.54
69751;BME280;57335;52.288;6.056;2023-04-25T08:41:21;101408.97;;;13.74;72.28
69751;BME280;57335;52.288;6.056;2023-04-25T08:43:48;101406.19;;;14.45;69.86
69751;BME280;57335;52.288;6.056;2023-04-25T08:46:17;101396.91;;;14.79;61.98
69751;BME280;57335;52.288;6.056;2023-04-25T08:48:45;101407.84;;;15.01;62.65
69751;BME280;57335;52.288;6.056;2023-04-25T08:51:20;101405.31;;;15.25;64.52
69751;BME280;57335;52.288;6.056;2023-04-25T08:53:50;101419.56;;;15.54;60.28
69751;BME280;57335;52.288;6.056;2023-04-25T08:56:38;101417.94;;;15.53;62.59
69751;BME280;57335;52.288;6.056;2023-04-25T08:59:05;101444.28;;;15.11;60.76
69751;BME280;57335;52.288;6.056;2023-04-25T09:01:32;101454.94;;;12.22;63.58
69751;BME280;57335;52.288;6.056;2023-04-25T09:03:58;101465.44;;;10.98;66.91
69751;BME280;57335;52.288;6.056;2023-04-25T09:06:25;101467.72;;;10.80;69.55
69751;BME280;57335;52.288;6.056;2023-04-25T09:08:51;101448.53;;;10.02;70.50
69751;BME280;57335;52.288;6.056;2023-04-25T09:11:18;101469.63;;;9.57;74.90
69751;BME280;57335;52.288;6.056;2023-04-25T09:13:48;101452.59;;;9.31;73.35
69751;BME280;57335;52.288;6.056;2023-04-25T09:16:15;101450.19;;;9.15;71.18
69751;BME280;57335;52.288;6.056;2023-04-25T09:18:41;101451.50;;;8.96;74.79
69751;BME280;57335;52.288;6.056;2023-04-25T09:21:14;101463.19;;;9.08;76.11
69751;BME280;57335;52.288;6.056;2023-04-25T09:23:46;101460.63;;;9.30;78.18
69751;BME280;57335;52.288;6.056;2023-04-25T09:26:18;101466.66;;;9.82;77.98
69751;BME280;57335;52.288;6.056;2023-04-25T09:28:45;101476.25;;;10.32;74.02
69751;BME280;57335;52.288;6.056;2023-04-25T09:31:24;101472.69;;;10.68;73.71
69751;BME280;57335;52.288;6.056;2023-04-25T09:34:01;101455.69;;;10.92;72.47
69751;BME280;57335;52.288;6.056;2023-04-25T09:36:33;101479.03;;;11.64;74.81
69751;BME280;57335;52.288;6.056;2023-04-25T09:39:14;101473.94;;;12.24;72.94
69751;BME280;57335;52.288;6.056;2023-04-25T09:41:40;101481.22;;;12.82;68.51
69751;BME280;57335;52.288;6.056;2023-04-25T09:44:07;101467.78;;;13.10;70.79
69751;BME280;57335;52.288;6.056;2023-04-25T09:46:34;101482.50;;;13.24;65.71
69751;BME280;57335;52.288;6.056;2023-04-25T09:49:06;101471.28;;;13.55;67.22
69751;BME280;57335;52.288;6.056;2023-04-25T09:51:32;101470.06;;;13.58;60.89
69751;BME280;57335;52.288;6.056;2023-04-25T09:53:59;101474.97;;;13.48;61.82
69751;BME280;57335;52.288;6.056;2023-04-25T09:56:27;101470.44;;;13.03;67.61
69751;BME280;57335;52.288;6.056;2023-04-25T09:58:56;101480.69;;;13.25;64.92
69751;BME280;57335;52.288;6.056;2023-04-25T10:01:23;101469.91;;;13.46;65.91
69751;BME280;57335;52.288;6.056;2023-04-25T10:03:52;101480.94;;;13.68;60.40
69751;BME280;57335;52.288;6.056;2023-04-25T10:06:24;101490.09;;;13.66;61.17
69751;BME280;57335;52.288;6.056;2023-04-25T10:08:52;101482.94;;;13.21;61.01
69751;BME280;57335;52.288;6.056;2023-04-25T10:11:19;101488.50;;;12.20;60.24
69751;BME280;57335;52.288;6.056;2023-04-25T10:13:46;101505.44;;;11.97;66.95
69751;BME280;57335;52.288;6.056;2023-04-25T10:16:13;101482.28;;;11.59;65.37
69751;BME280;57335;52.288;6.056;2023-04-25T10:18:40;101481.94;;;11.27;64.96
69751;BME280;57335;52.288;6.056;2023-04-25T10:21:12;101513.25;;;11.35;66.75
69751;BME280;57335;52.288;6.056;2023-04-25T10:23:39;101504.13;;;11.25;64.24
69751;BME280;57335;52.288;6.056;2023-04-25T10:26:07;101507.63;;;11.38;67.08
69751;BME280;57335;52.288;6.056;2023-04-25T10:28:55;101514.81;;;11.71;63.80
69751;BME280;57335;52.288;6.056;2023-04-25T10:31:22;101506.59;;;11.81;66.25
69751;BME280;57335;52.288;6.056;2023-04-25T10:33:48;101503.16;;;11.87;63.82
69751;BME280;57335;52.288;6.056;2023-04-25T10:36:21;101507.47;;;11.95;65.59
69751;BME280;57335;52.288;6.056;2023-04-25T10:38:49;101516.56;;;12.12;62.49
69751;BME280;57335;52.288;6.056;2023-04-25T10:41:18;101525.69;;;12.30;66.42
69751;BME280;57335;52.288;6.056;2023-04-25T10:43:49;101521.69;;;12.67;64.41
69751;BME280;57335;52.288;6.056;2023-04-25T10:46:27;101521.63;;;13.01;61.80
69751;BME280;57335;52.288;6.056;2023-04-25T10:48:58;101525.88;;;13.15;57.80
69751;BME280;57335;52.288;6.056;2023-04-25T10:51:26;101524.50;;;12.46;56.22
69751;BME280;57335;52.288;6.056;2023-04-25T10:56:28;101516.63;;;12.39;61.27
69751;BME280;57335;52.288;6.056;2023-04-25T10:59:18;101513.56;;;12.69;61.39
69751;BME280;57335;52.288;6.056;2023-04-25T11:01:46;101512.53;;;12.96;60.24
69751;BME280;57335;52.288;6.056;2023-04-25T11:09:49;101499.03;;;13.58;57.58
69751;BME280;57335;52.288;6.056;2023-04-25T11:12:15;101512.22;;;13.45;56.37
69751;BME280;57335;52.288;6.056;2023-04-25T11:14:44;101507.28;;;12.03;55.05
69751;BME280;57335;52.288;6.056;2023-04-25T11:17:11;101510.59;;;11.77;57.36
69751;BME280;57335;52.288;6.056;2023-04-25T11:19:38;101534.59;;;12.15;57.55
69751;BME280;57335;52.288;6.056;2023-04-25T11:22:04;101522.06;;;12.44;59.00
69751;BME280;57335;52.288;6.056;2023-04-25T11:24:32;101515.81;;;12.65;64.23
69751;BME280;57335;52.288;6.056;2023-04-25T11:27:00;101522.06;;;12.91;65.21
69751;BME280;57335;52.288;6.056;2023-04-25T11:29:33;101529.38;;;11.74;63.22
69751;BME280;57335;52.288;6.056;2023-04-25T11:32:02;101532.47;;;10.80;64.09
69751;BME280;57335;52.288;6.056;2023-04-25T11:34:30;101539.16;;;10.17;64.75
69751;BME280;57335;52.288;6.056;2023-04-25T11:36:58;101530.22;;;9.90;70.15
69751;BME280;57335;52.288;6.056;2023-04-25T11:39:25;101537.78;;;10.22;68.45
69751;BME280;57335;52.288;6.056;2023-04-25T11:41:52;101540.31;;;10.51;67.90
69751;BME280;57335;52.288;6.056;2023-04-25T11:44:20;101542.22;;;10.64;66.89
69751;BME280;57335;52.288;6.056;2023-04-25T11:46:47;101526.44;;;10.57;66.36
69751;BME280;57335;52.288;6.056;2023-04-25T11:49:15;101535.94;;;10.58;64.28
69751;BME280;57335;52.288;6.056;2023-04-25T11:51:44;101533.91;;;10.82;66.77
69751;BME280;57335;52.288;6.056;2023-04-25T11:54:11;101530.78;;;10.72;65.04
69751;BME280;57335;52.288;6.056;2023-04-25T11:56:41;101538.25;;;10.47;64.77
69751;BME280;57335;52.288;6.056;2023-04-25T11:59:07;101537.81;;;10.65;64.58
69751;BME280;57335;52.288;6.056;2023-04-25T12:01:36;101538.31;;;10.53;60.50
69751;BME280;57335;52.288;6.056;2023-04-25T12:04:16;101548.03;;;10.38;61.56
69751;BME280;57335;52.288;6.056;2023-04-25T12:06:44;101539.06;;;10.69;60.46
69751;BME280;57335;52.288;6.056;2023-04-25T12:09:11;101549.75;;;10.74;58.85
69751;BME280;57335;52.288;6.056;2023-04-25T12:14:08;101561.19;;;11.51;61.27
69751;BME280;57335;52.288;6.056;2023-04-25T12:16:42;101566.66;;;11.21;58.97
69751;BME280;57335;52.288;6.056;2023-04-25T12:19:09;101567.63;;;11.13;61.99
69751;BME280;57335;52.288;6.056;2023-04-25T12:21:35;101558.72;;;11.43;59.79
69751;BME280;57335;52.288;6.056;2023-04-25T12:24:24;101576.81;;;11.72;55.38
69751;BME280;57335;52.288;6.056;2023-04-25T12:27:01;101564.63;;;11.93;55.62
69751;BME280;57335;52.288;6.056;2023-04-25T12:29:30;101571.31;;;11.95;55.81
69751;BME280;57335;52.288;6.056;2023-04-25T12:32:00;101567.31;;;12.13;56.01
69751;BME280;57335;52.288;6.056;2023-04-25T12:34:27;101559.88;;;11.75;57.72
69751;BME280;57335;52.288;6.056;2023-04-25T12:36:54;101570.53;;;11.25;60.67
69751;BME280;57335;52.288;6.056;2023-04-25T12:39:22;101576.84;;;11.03;62.15
69751;BME280;57335;52.288;6.056;2023-04-25T12:41:49;101584.59;;;10.89;62.96
69751;BME280;57335;52.288;6.056;2023-04-25T12:44:16;101569.81;;;10.82;59.66
69751;BME280;57335;52.288;6.056;2023-04-25T12:46:43;101593.44;;;10.88;62.03
69751;BME280;57335;52.288;6.056;2023-04-25T12:49:09;101568.50;;;10.71;61.95
69751;BME280;57335;52.288;6.056;2023-04-25T12:51:44;101571.47;;;10.89;64.26
69751;BME280;57335;52.288;6.056;2023-04-25T12:54:11;101577.47;;;11.40;63.78
69751;BME280;57335;52.288;6.056;2023-04-25T12:56:37;101578.59;;;10.74;65.14
69751;BME280;57335;52.288;6.056;2023-04-25T12:59:03;101581.69;;;10.34;64.77
69751;BME280;57335;52.288;6.056;2023-04-25T13:01:30;101586.06;;;10.12;64.96